createdAt,value
2023-02-04T00:01:37.412Z,103231.63
2023-02-04T00:04:05.567Z,103232.63
2023-02-04T00:06:33.358Z,103215.50
2023-02-04T00:09:01.148Z,103220.03
2023-02-04T00:11:30.254Z,103220.03
2023-02-04T00:13:58.001Z,103217.34
2023-02-04T00:16:25.811Z,103219.34
2023-02-04T00:18:53.679Z,103227.41
2023-02-04T00:21:21.451Z,103215.13
2023-02-04T00:23:51.134Z,103213.31
2023-02-04T00:26:18.911Z,103217.81
2023-02-04T00:28:47.979Z,103212.59
2023-02-04T00:31:15.799Z,103214.44
2023-02-04T00:33:43.940Z,103218.81
2023-02-04T00:36:11.682Z,103218.13
2023-02-04T00:38:39.414Z,103227.19
2023-02-04T00:41:07.630Z,103231.88
2023-02-04T00:43:35.355Z,103235.38
2023-02-04T00:46:04.519Z,103228.50
2023-02-04T00:48:32.298Z,103240.91
2023-02-04T00:50:59.984Z,103234.00
2023-02-04T00:53:27.695Z,103234.00
2023-02-04T00:55:55.460Z,103232.47
2023-02-04T00:58:23.240Z,103233.31
2023-02-04T01:00:51.021Z,103236.84
2023-02-04T01:03:20.349Z,103232.47
2023-02-04T01:05:48.070Z,103233.47
2023-02-04T01:08:15.858Z,103235.16
2023-02-04T01:10:43.589Z,103237.84
2023-02-04T01:13:11.634Z,103238.84
2023-02-04T01:15:39.372Z,103239.69
2023-02-04T01:18:07.115Z,103250.44
2023-02-04T01:20:36.204Z,103245.06
2023-02-04T01:23:03.943Z,103250.44
2023-02-04T01:25:31.661Z,103249.56
2023-02-04T01:27:59.462Z,103253.94
2023-02-04T01:30:27.375Z,103262.00
2023-02-04T01:32:55.096Z,103260.31
2023-02-04T01:35:22.966Z,103262.00
2023-02-04T01:37:52.057Z,103252.09
2023-02-04T01:40:20.327Z,103267.38
2023-02-04T01:42:48.313Z,103259.16
2023-02-04T01:45:16.086Z,103269.06
2023-02-04T01:47:45.189Z,103276.25
2023-02-04T01:50:15.709Z,103275.56
2023-02-04T01:52:45.388Z,103271.88
2023-02-04T01:55:18.109Z,103281.78
2023-02-04T01:57:46.206Z,103276.56
2023-02-04T02:00:17.843Z,103275.72
2023-02-04T02:02:48.140Z,103283.09
2023-02-04T02:05:19.041Z,103283.94
2023-02-04T02:07:46.889Z,103283.94
2023-02-04T02:10:17.071Z,103285.63
2023-02-04T02:12:45.356Z,103284.06
2023-02-04T02:15:14.578Z,103285.91
2023-02-04T02:17:42.821Z,103288.59
2023-02-04T02:20:13.100Z,103277.88
2023-02-04T02:22:45.641Z,103289.75
2023-02-04T02:25:16.187Z,103287.06
2023-02-04T02:27:44.649Z,103285.38
2023-02-04T02:30:16.691Z,103283.00
2023-02-04T02:32:45.617Z,103288.38
2023-02-04T02:35:13.526Z,103290.22
2023-02-04T02:37:41.327Z,103292.34
2023-02-04T02:40:10.502Z,103276.88
2023-02-04T02:42:39.876Z,103289.53
2023-02-04T02:45:18.270Z,103290.50
2023-02-04T02:47:46.106Z,103290.50
2023-02-04T02:50:17.900Z,103295.88
2023-02-04T02:52:45.787Z,103301.41
2023-02-04T02:55:17.220Z,103298.88
2023-02-04T02:57:48.315Z,103313.13
2023-02-04T03:00:18.667Z,103303.53
2023-02-04T03:02:50.814Z,103314.13
2023-02-04T03:05:18.609Z,103319.47
2023-02-04T03:07:46.407Z,103321.47
2023-02-04T03:10:14.222Z,103313.56
2023-02-04T03:12:42.012Z,103323.31
2023-02-04T03:15:11.660Z,103323.47
2023-02-04T03:17:39.490Z,103318.09
2023-02-04T03:20:08.385Z,103322.63
2023-02-04T03:22:36.453Z,103322.75
2023-02-04T03:25:04.520Z,103320.09
2023-02-04T03:27:32.492Z,103314.03
2023-02-04T03:30:00.259Z,103319.38
2023-02-04T03:32:29.334Z,103323.91
2023-02-04T03:34:57.049Z,103332.81
2023-02-04T03:37:24.764Z,103332.81
2023-02-04T03:39:52.542Z,103331.97
2023-02-04T03:42:20.291Z,103340.16
2023-02-04T03:44:48.017Z,103345.53
2023-02-04T03:47:15.809Z,103343.69
2023-02-04T03:49:44.905Z,103347.34
2023-02-04T03:52:12.668Z,103354.56
2023-02-04T03:54:40.397Z,103355.69
2023-02-04T03:57:08.109Z,103354.72
2023-02-04T03:59:35.860Z,103357.53
2023-02-04T04:02:03.632Z,103347.81
2023-02-04T04:04:31.446Z,103351.47
2023-02-04T04:07:00.585Z,103336.28
2023-02-04T04:09:28.494Z,103349.09
2023-02-04T04:11:56.482Z,103353.47
2023-02-04T04:14:24.215Z,103350.78
2023-02-04T04:16:51.982Z,103349.09
2023-02-04T04:19:19.758Z,103356.31
2023-02-04T04:21:47.538Z,103353.91
2023-02-04T04:24:16.630Z,103348.56
2023-02-04T04:26:44.370Z,103353.22
2023-02-04T04:29:12.156Z,103358.72
2023-02-04T04:31:39.976Z,103359.72
2023-02-04T04:34:07.799Z,103363.41
2023-02-04T04:36:35.544Z,103366.22
2023-02-04T04:39:03.268Z,103363.53
2023-02-04T04:41:32.327Z,103368.06
2023-02-04T04:44:00.029Z,103360.06
2023-02-04T04:46:27.790Z,103371.72
2023-02-04T04:48:55.566Z,103383.31
2023-02-04T04:51:23.362Z,103376.41
2023-02-04T04:53:51.145Z,103383.59
2023-02-04T04:56:19.201Z,103382.75
2023-02-04T04:58:48.341Z,103371.19
2023-02-04T05:01:16.146Z,103379.38
2023-02-04T05:03:43.928Z,103369.78
2023-02-04T05:06:13.067Z,103378.69
2023-02-04T05:08:40.831Z,103377.84
2023-02-04T05:11:08.605Z,103379.66
2023-02-04T05:13:36.332Z,103379.66
2023-02-04T05:16:05.995Z,103389.56
2023-02-04T05:18:33.754Z,103386.06
2023-02-04T05:21:01.768Z,103388.88
2023-02-04T05:23:29.468Z,103392.41
2023-02-04T05:25:57.458Z,103404.13
2023-02-04T05:28:25.207Z,103401.44
2023-02-04T05:30:52.943Z,103406.09
2023-02-04T05:33:22.040Z,103400.88
2023-02-04T05:35:50.036Z,103410.63
2023-02-04T05:38:17.788Z,103415.97
2023-02-04T05:40:45.537Z,103403.44
2023-02-04T05:43:13.257Z,103398.91
2023-02-04T05:45:41.010Z,103405.13
2023-02-04T05:48:08.778Z,103411.31
2023-02-04T05:50:37.937Z,103400.59
2023-02-04T05:53:05.712Z,103407.78
2023-02-04T05:55:33.463Z,103397.91
2023-02-04T05:58:01.263Z,103397.91
2023-02-04T06:00:29.062Z,103398.75
2023-02-04T06:02:56.899Z,103399.75
2023-02-04T06:05:24.657Z,103412.31
2023-02-04T06:07:53.825Z,103407.94
2023-02-04T06:10:22.081Z,103416.69
2023-02-04T06:12:50.092Z,103422.19
2023-02-04T06:15:18.114Z,103420.34
2023-02-04T06:17:45.798Z,103426.56
2023-02-04T06:20:15.864Z,103428.53
2023-02-04T06:22:43.588Z,103436.72
2023-02-04T06:25:12.687Z,103439.41
2023-02-04T06:27:40.467Z,103447.59
2023-02-04T06:30:09.389Z,103453.94
2023-02-04T06:32:37.256Z,103462.00
2023-02-04T06:35:05.286Z,103468.19
2023-02-04T06:37:33.043Z,103465.66
2023-02-04T06:40:00.853Z,103469.31
2023-02-04T06:42:29.895Z,103467.50
2023-02-04T06:44:57.678Z,103466.66
2023-02-04T06:47:25.409Z,103473.00
2023-02-04T06:49:53.155Z,103473.00
2023-02-04T06:52:20.892Z,103473.00
2023-02-04T06:54:48.688Z,103477.38
2023-02-04T06:57:16.399Z,103471.16
2023-02-04T06:59:47.034Z,103475.13
2023-02-04T07:02:15.516Z,103476.97
2023-02-04T07:04:43.807Z,103480.34
2023-02-04T07:07:11.614Z,103483.03
2023-02-04T07:09:40.618Z,103483.72
2023-02-04T07:12:08.699Z,103495.31
2023-02-04T07:14:36.487Z,103491.63
2023-02-04T07:17:05.638Z,103491.63
2023-02-04T07:19:33.824Z,103502.22
2023-02-04T07:22:01.596Z,103502.22
2023-02-04T07:24:29.351Z,103500.38
2023-02-04T07:26:57.106Z,103501.22
2023-02-04T07:29:26.046Z,103502.06
2023-02-04T07:31:54.120Z,103505.72
2023-02-04T07:34:23.393Z,103518.16
2023-02-04T07:36:51.499Z,103514.63
2023-02-04T07:39:19.316Z,103515.59
2023-02-04T07:41:47.144Z,103522.66
2023-02-04T07:44:14.970Z,103516.44
2023-02-04T07:46:42.872Z,103516.44
2023-02-04T07:49:10.638Z,103527.16
2023-02-04T07:51:39.769Z,103520.63
2023-02-04T07:54:07.448Z,103523.41
2023-02-04T07:56:35.240Z,103520.25
2023-02-04T07:59:03.076Z,103523.31
2023-02-04T08:01:30.857Z,103524.69
2023-02-04T08:03:58.647Z,103528.56
2023-02-04T08:06:26.492Z,103533.28
2023-02-04T08:08:55.578Z,103548.06
2023-02-04T08:11:23.259Z,103538.69
2023-02-04T08:13:50.955Z,103543.53
2023-02-04T08:16:18.739Z,103541.88
2023-02-04T08:18:46.459Z,103544.06
2023-02-04T08:21:14.193Z,103548.78
2023-02-04T08:23:42.317Z,103547.28
2023-02-04T08:26:12.860Z,103542.66
2023-02-04T08:28:40.605Z,103549.44
2023-02-04T08:31:11.860Z,103552.56
2023-02-04T08:33:40.053Z,103554.69
2023-02-04T08:36:08.677Z,103566.84
2023-02-04T08:38:36.587Z,103565.31
2023-02-04T08:41:04.564Z,103561.22
2023-02-04T08:43:33.630Z,103565.88
2023-02-04T08:46:01.396Z,103565.19
2023-02-04T08:48:29.300Z,103560.97
2023-02-04T08:50:57.123Z,103568.28
2023-02-04T08:53:24.913Z,103570.16
2023-02-04T08:55:52.671Z,103573.97
2023-02-04T08:58:20.391Z,103572.97
2023-02-04T09:00:49.666Z,103581.00
2023-02-04T09:03:17.397Z,103582.56
2023-02-04T09:05:45.066Z,103582.28
2023-02-04T09:08:12.833Z,103584.81
2023-02-04T09:10:40.800Z,103594.41
2023-02-04T09:13:11.690Z,103583.53
2023-02-04T09:15:39.492Z,103589.91
2023-02-04T09:18:16.373Z,103597.94
2023-02-04T09:20:44.139Z,103600.63
2023-02-04T09:23:12.936Z,103599.91
2023-02-04T09:25:41.213Z,103601.59
2023-02-04T09:28:11.553Z,103607.81
2023-02-04T09:30:39.929Z,103599.78
2023-02-04T09:33:09.840Z,103598.94
2023-02-04T09:35:37.658Z,103602.59
2023-02-04T09:38:05.482Z,103603.31
2023-02-04T09:40:36.414Z,103605.97
2023-02-04T09:43:06.667Z,103613.19
2023-02-04T09:45:36.991Z,103610.50
2023-02-04T09:48:08.545Z,103612.19
2023-02-04T09:50:38.738Z,103622.91
2023-02-04T09:53:08.429Z,103616.56
2023-02-04T09:55:39.073Z,103621.22
2023-02-04T09:58:13.346Z,103620.94
2023-02-04T10:00:41.111Z,103601.19
2023-02-04T10:03:15.901Z,103622.78
2023-02-04T10:05:45.671Z,103615.72
2023-02-04T10:08:16.334Z,103619.25
2023-02-04T10:10:45.086Z,103620.94
2023-02-04T10:13:19.431Z,103628.16
2023-02-04T10:15:49.022Z,103627.28
2023-02-04T10:18:23.449Z,103627.00
2023-02-04T10:20:54.030Z,103630.53
2023-02-04T10:23:22.119Z,103632.94
2023-02-04T10:25:49.869Z,103623.59
2023-02-04T10:28:18.412Z,103623.53
2023-02-04T10:30:47.218Z,103626.00
2023-02-04T10:33:16.818Z,103626.09
2023-02-04T10:35:49.170Z,103634.91
2023-02-04T10:38:18.290Z,103622.72
2023-02-04T10:40:47.224Z,103630.91
2023-02-04T10:43:23.780Z,103630.81
2023-02-04T10:45:59.069Z,103631.84
2023-02-04T10:48:27.945Z,103632.03
2023-02-04T10:50:57.548Z,103635.47
2023-02-04T10:53:45.223Z,103632.38
2023-02-04T10:56:17.731Z,103640.72
2023-02-04T10:58:45.750Z,103641.00
2023-02-04T11:01:16.013Z,103637.63
2023-02-04T11:03:47.095Z,103631.31
2023-02-04T11:06:21.379Z,103642.44
2023-02-04T11:08:53.539Z,103629.16
2023-02-04T11:11:24.388Z,103643.59
2023-02-04T11:14:04.251Z,103633.00
2023-02-04T11:16:35.517Z,103627.63
2023-02-04T11:19:05.594Z,103626.78
2023-02-04T11:21:44.603Z,103632.16
2023-02-04T11:24:26.404Z,103626.78
2023-02-04T11:27:07.515Z,103629.47
2023-02-04T11:29:38.480Z,103623.38
2023-02-04T11:32:11.390Z,103626.78
2023-02-04T11:34:48.658Z,103632.16
2023-02-04T11:37:35.551Z,103630.31
2023-02-04T11:40:21.427Z,103630.44
2023-02-04T11:42:49.570Z,103627.63
2023-02-04T11:45:21.127Z,103627.63
2023-02-04T11:47:49.485Z,103621.25
2023-02-04T11:50:22.704Z,103621.97
2023-02-04T11:52:50.498Z,103613.06
2023-02-04T11:55:20.190Z,103621.97
2023-02-04T11:57:52.999Z,103627.19
2023-02-04T12:00:22.929Z,103620.13
2023-02-04T12:02:56.170Z,103626.34
2023-02-04T12:05:37.533Z,103617.28
2023-02-04T12:08:13.603Z,103625.34
2023-02-04T12:10:50.158Z,103617.28
2023-02-04T12:13:20.122Z,103625.19
2023-02-04T12:15:56.676Z,103619.84
2023-02-04T12:18:24.413Z,103618.97
2023-02-04T12:20:52.112Z,103624.22
2023-02-04T12:23:19.963Z,103629.56
2023-02-04T12:25:49.247Z,103621.38
2023-02-04T12:28:17.278Z,103625.91
2023-02-04T12:30:45.210Z,103629.72
2023-02-04T12:33:14.920Z,103632.13
2023-02-04T12:35:42.956Z,103632.81
2023-02-04T12:38:11.046Z,103632.81
2023-02-04T12:40:38.972Z,103626.59
2023-02-04T12:43:08.152Z,103631.97
2023-02-04T12:45:35.929Z,103633.66
2023-02-04T12:48:03.682Z,103625.59
2023-02-04T12:50:31.666Z,103624.63
2023-02-04T12:53:00.836Z,103625.47
2023-02-04T12:55:30.413Z,103624.31
2023-02-04T12:57:58.402Z,103624.16
2023-02-04T13:00:27.794Z,103630.25
2023-02-04T13:02:56.045Z,103635.47
2023-02-04T13:05:23.761Z,103632.63
2023-02-04T13:07:51.612Z,103625.44
2023-02-04T13:10:20.157Z,103630.66
2023-02-04T13:12:47.958Z,103624.44
2023-02-04T13:15:15.728Z,103629.66
2023-02-04T13:17:44.810Z,103629.50
2023-02-04T13:20:13.739Z,103627.66
2023-02-04T13:22:44.277Z,103624.00
2023-02-04T13:25:12.600Z,103620.47
2023-02-04T13:27:40.924Z,103616.78
2023-02-04T13:30:10.307Z,103606.03
2023-02-04T13:32:38.092Z,103606.88
2023-02-04T13:35:08.019Z,103611.41
2023-02-04T13:37:36.014Z,103610.41
2023-02-04T13:40:03.758Z,103611.25
2023-02-04T13:42:31.483Z,103609.41
2023-02-04T13:44:59.236Z,103610.25
2023-02-04T13:47:27.561Z,103614.63
2023-02-04T13:49:55.306Z,103605.59
2023-02-04T13:52:24.393Z,103604.59
2023-02-04T13:54:52.127Z,103603.59
2023-02-04T13:57:21.181Z,103596.38
2023-02-04T13:59:48.894Z,103593.72
2023-02-04T14:02:16.949Z,103598.22
2023-02-04T14:04:44.708Z,103596.38
2023-02-04T14:07:13.743Z,103598.22
2023-02-04T14:09:42.901Z,103594.56
2023-02-04T14:12:10.806Z,103595.69
2023-02-04T14:14:38.509Z,103591.31
2023-02-04T14:17:06.674Z,103598.38
2023-02-04T14:19:34.485Z,103596.53
2023-02-04T14:22:02.804Z,103594.84
2023-02-04T14:24:30.611Z,103595.53
2023-02-04T14:27:01.230Z,103590.19
2023-02-04T14:29:28.970Z,103595.53
2023-02-04T14:31:56.762Z,103596.53
2023-02-04T14:34:24.566Z,103589.31
2023-02-04T14:36:52.274Z,103602.59
2023-02-04T14:39:20.084Z,103598.09
2023-02-04T14:41:47.771Z,103602.47
2023-02-04T14:44:20.676Z,103603.31
2023-02-04T14:46:49.749Z,103602.31
2023-02-04T14:49:17.730Z,103595.06
2023-02-04T14:51:45.638Z,103593.25
2023-02-04T14:54:13.661Z,103592.44
2023-02-04T14:56:41.416Z,103600.34
2023-02-04T14:59:09.143Z,103596.97
2023-02-04T15:01:38.235Z,103596.34
2023-02-04T15:04:06.004Z,103599.19
2023-02-04T15:06:33.776Z,103602.34
2023-02-04T15:09:01.509Z,103588.59
2023-02-04T15:11:29.235Z,103607.41
2023-02-04T15:13:56.948Z,103610.75
2023-02-04T15:16:24.695Z,103611.34
2023-02-04T15:18:53.994Z,103617.03
2023-02-04T15:21:21.935Z,103608.44
2023-02-04T15:23:49.609Z,103607.88
2023-02-04T15:26:17.358Z,103615.25
2023-02-04T15:28:45.122Z,103609.16
2023-02-04T15:31:13.260Z,103616.53
2023-02-04T15:33:41.145Z,103620.22
2023-02-04T15:36:10.666Z,103623.88
2023-02-04T15:38:38.458Z,103625.88
2023-02-04T15:41:06.416Z,103628.72
2023-02-04T15:43:35.854Z,103619.81
2023-02-04T15:46:03.668Z,103627.88
2023-02-04T15:48:31.424Z,103619.97
2023-02-04T15:50:59.573Z,103634.25
2023-02-04T15:53:28.763Z,103626.19
2023-02-04T15:55:56.561Z,103622.81
2023-02-04T15:58:24.304Z,103629.16
2023-02-04T16:00:52.098Z,103626.47
2023-02-04T16:03:19.855Z,103633.84
2023-02-04T16:05:47.624Z,103624.09
2023-02-04T16:08:21.936Z,103625.09
2023-02-04T16:10:51.089Z,103635.00
2023-02-04T16:13:18.879Z,103626.94
2023-02-04T16:15:46.731Z,103623.41
2023-02-04T16:18:14.506Z,103623.41
2023-02-04T16:20:42.257Z,103617.19
2023-02-04T16:23:10.063Z,103622.56
2023-02-04T16:25:37.833Z,103628.78
2023-02-04T16:28:07.036Z,103644.19
2023-02-04T16:30:34.809Z,103645.88
2023-02-04T16:33:02.537Z,103640.66
2023-02-04T16:35:30.542Z,103637.84
2023-02-04T16:37:58.343Z,103644.03
2023-02-04T16:40:26.060Z,103652.25
2023-02-04T16:42:54.247Z,103653.09
2023-02-04T16:45:24.302Z,103656.78
2023-02-04T16:47:52.089Z,103655.94
2023-02-04T16:50:22.058Z,103653.25
2023-02-04T16:52:49.803Z,103662.31
2023-02-04T16:55:17.803Z,103664.00
2023-02-04T16:57:45.616Z,103667.69
2023-02-04T17:00:14.697Z,103670.38
2023-02-04T17:02:43.915Z,103669.81
2023-02-04T17:05:11.777Z,103676.72
2023-02-04T17:07:39.672Z,103675.88
2023-02-04T17:10:08.005Z,103673.19
2023-02-04T17:12:35.816Z,103673.34
2023-02-04T17:15:03.596Z,103684.78
2023-02-04T17:17:31.422Z,103670.25
2023-02-04T17:20:01.085Z,103681.41
2023-02-04T17:22:28.830Z,103686.78
2023-02-04T17:24:56.540Z,103684.25
2023-02-04T17:27:24.263Z,103681.56
2023-02-04T17:29:52.011Z,103678.03
2023-02-04T17:32:19.742Z,103677.88
2023-02-04T17:34:47.473Z,103683.41
2023-02-04T17:37:16.573Z,103679.72
2023-02-04T17:39:44.491Z,103681.56
2023-02-04T17:42:12.200Z,103688.78
2023-02-04T17:44:40.037Z,103690.47
2023-02-04T17:47:08.408Z,103686.94
2023-02-04T17:49:36.516Z,103677.03
2023-02-04T17:52:04.448Z,103678.88
2023-02-04T17:54:34.179Z,103682.56
2023-02-04T17:57:12.625Z,103681.72
2023-02-04T17:59:41.074Z,103684.53
2023-02-04T18:02:21.969Z,103686.38
2023-02-04T18:04:49.926Z,103682.00
2023-02-04T18:07:17.696Z,103682.81
2023-02-04T18:09:46.826Z,103685.00
2023-02-04T18:12:16.293Z,103688.91
2023-02-04T18:14:44.780Z,103686.22
2023-02-04T18:17:14.559Z,103681.03
2023-02-04T18:19:45.127Z,103690.94
2023-02-04T18:22:14.893Z,103701.78
2023-02-04T18:24:45.056Z,103701.94
2023-02-04T18:27:21.128Z,103696.31
2023-02-04T18:29:51.891Z,103700.78
2023-02-04T18:32:22.273Z,103689.94
2023-02-04T18:34:52.197Z,103690.69
2023-02-04T18:37:30.346Z,103684.22
2023-02-04T18:40:24.616Z,103683.19
2023-02-04T18:43:02.576Z,103688.00
2023-02-04T18:45:32.477Z,103692.00
2023-02-04T18:48:02.195Z,103679.88
2023-02-04T18:50:32.643Z,103699.13
2023-02-04T18:53:02.334Z,103696.72
2023-02-04T18:55:34.834Z,103699.69
2023-02-04T18:58:28.264Z,103708.88
2023-02-04T19:01:00.519Z,103704.66
2023-02-04T19:03:30.427Z,103700.56
2023-02-04T19:06:00.548Z,103709.47
2023-02-04T19:08:30.297Z,103711.47
2023-02-04T19:11:00.904Z,103713.31
2023-02-04T19:13:40.953Z,103707.09
2023-02-04T19:16:21.485Z,103693.94
2023-02-04T19:18:50.079Z,103708.34
2023-02-04T19:21:27.296Z,103703.81
2023-02-04T19:23:59.790Z,103700.44
2023-02-04T19:26:35.044Z,103705.94
2023-02-04T19:29:37.573Z,103705.94
2023-02-04T19:32:24.926Z,103700.53
2023-02-04T19:34:53.201Z,103699.22
2023-02-04T19:37:26.591Z,103700.06
2023-02-04T19:39:55.883Z,103701.63
2023-02-04T19:42:29.827Z,103713.22
2023-02-04T19:45:01.768Z,103722.06
2023-02-04T19:47:35.280Z,103720.38
2023-02-04T19:50:21.590Z,103713.78
2023-02-04T19:52:52.225Z,103713.84
2023-02-04T19:55:34.832Z,103711.22
2023-02-04T19:58:14.788Z,103707.75
2023-02-04T20:00:53.159Z,103713.91
2023-02-04T20:03:28.663Z,103707.19
2023-02-04T20:06:01.897Z,103713.09
2023-02-04T20:08:46.273Z,103714.59
2023-02-04T20:11:50.018Z,103708.66
2023-02-04T20:14:42.603Z,103690.06
2023-02-04T20:17:22.237Z,103699.50
2023-02-04T20:19:50.911Z,103687.38
2023-02-04T20:22:43.990Z,103691.91
2023-02-04T20:25:43.655Z,103694.88
2023-02-04T20:28:20.265Z,103696.84
2023-02-04T20:30:50.670Z,103694.31
2023-02-04T20:33:29.295Z,103694.47
2023-02-04T20:36:42.526Z,103694.75
2023-02-04T20:39:43.645Z,103698.44
2023-02-04T20:42:35.241Z,103698.72
2023-02-04T20:45:25.434Z,103691.66
2023-02-04T20:47:57.421Z,103713.31
2023-02-04T20:50:38.202Z,103703.56
2023-02-04T20:53:09.708Z,103698.34
2023-02-04T20:55:37.550Z,103702.00
2023-02-04T20:58:16.636Z,103713.75
2023-02-04T21:00:47.889Z,103716.59
2023-02-04T21:03:25.358Z,103719.28
2023-02-04T21:05:55.706Z,103722.13
2023-02-04T21:08:33.352Z,103715.75
2023-02-04T21:11:01.866Z,103704.16
2023-02-04T21:13:29.644Z,103706.13
2023-02-04T21:15:57.681Z,103707.00
2023-02-04T21:18:26.024Z,103706.13
2023-02-04T21:20:55.135Z,103712.34
2023-02-04T21:23:22.969Z,103716.34
2023-02-04T21:25:50.706Z,103724.94
2023-02-04T21:28:18.629Z,103709.56
2023-02-04T21:30:46.455Z,103706.59
2023-02-04T21:33:16.694Z,103702.19
2023-02-04T21:35:44.840Z,103699.66
2023-02-04T21:38:13.976Z,103702.19
2023-02-04T21:40:42.115Z,103693.28
2023-02-04T21:43:11.158Z,103684.41
2023-02-04T21:45:39.856Z,103688.91
2023-02-04T21:48:08.822Z,103696.13
2023-02-04T21:50:38.404Z,103696.13
2023-02-04T21:53:06.866Z,103699.81
2023-02-04T21:55:36.666Z,103689.91
2023-02-04T21:58:04.895Z,103688.22
2023-02-04T22:00:33.098Z,103686.53
2023-02-04T22:03:01.015Z,103685.69
2023-02-04T22:05:28.807Z,103680.31
2023-02-04T22:07:58.393Z,103688.38
2023-02-04T22:10:27.431Z,103692.88
2023-02-04T22:12:56.597Z,103702.78
2023-02-04T22:15:24.954Z,103712.53
2023-02-04T22:17:55.261Z,103703.63
2023-02-04T22:20:25.231Z,103700.09
2023-02-04T22:22:53.354Z,103692.34
2023-02-04T22:25:22.440Z,103695.72
2023-02-04T22:27:50.651Z,103686.13
2023-02-04T22:30:20.753Z,103688.50
2023-02-04T22:32:48.545Z,103682.44
2023-02-04T22:35:16.680Z,103687.81
2023-02-04T22:37:44.701Z,103699.41
2023-02-04T22:40:13.574Z,103701.25
2023-02-04T22:42:41.800Z,103704.94
2023-02-04T22:45:11.302Z,103703.09
2023-02-04T22:47:40.483Z,103705.78
2023-02-04T22:50:08.945Z,103712.97
2023-02-04T22:52:36.747Z,103718.34
2023-02-04T22:55:04.916Z,103720.19
2023-02-04T22:57:32.684Z,103723.88
2023-02-04T23:00:00.445Z,103725.72
2023-02-04T23:02:28.212Z,103724.03
2023-02-04T23:04:57.313Z,103730.38
2023-02-04T23:07:25.027Z,103719.78
2023-02-04T23:09:52.810Z,103717.09
2023-02-04T23:12:20.508Z,103714.41
2023-02-04T23:14:49.606Z,103707.34
2023-02-04T23:17:18.865Z,103709.19
2023-02-04T23:19:46.744Z,103701.97
2023-02-04T23:22:16.973Z,103705.50
2023-02-04T23:24:45.089Z,103710.03
2023-02-04T23:27:13.216Z,103705.66
2023-02-04T23:29:41.407Z,103705.66
2023-02-04T23:32:09.765Z,103704.66
2023-02-04T23:34:37.524Z,103701.13
2023-02-04T23:37:05.290Z,103701.97
2023-02-04T23:39:34.403Z,103703.66
2023-02-04T23:42:02.185Z,103692.22
2023-02-04T23:44:29.926Z,103690.69
2023-02-04T23:46:57.706Z,103697.59
2023-02-04T23:49:25.409Z,103695.75
2023-02-04T23:51:53.149Z,103691.22
2023-02-04T23:54:20.943Z,103684.16
2023-02-04T23:56:50.060Z,103683.31
2023-02-04T23:59:17.817Z,103674.44
